Metar Cercanos

 

LEPA - Palma De Mallorc, Spain
Distance from station: ONO 38km
Actualización: 21/01/2018 19:30
Despejado
Despejado
 Viento del O
Viento: O 17 km/h
Temperatura: 18°C
Rocío: 10°C
Humedad: 60%
Barómetro: 1022 hPa
Resumen: Despejado
Visibility: greater than 10 km
2018/01/21 18:30 LEPA 211830Z 28009KT 260V320 CAVOK 18/10 Q1022 NOSIG
LEMH - Mahon/Menorca Is, Spain
Distance from station: ENE 105km
Actualización: 21/01/2018 19:30
Despejado
Despejado
 Viento del ONO
Viento: ONO 15 km/h
Temperatura: 14°C
Rocío: 10°C
Humedad: 77%
Barómetro: 1021 hPa
Resumen: Despejado
Visibility: greater than 10 km
2018/01/21 18:30 LEMH 211830Z 30008KT 270V330 CAVOK 14/10 Q1021
 
LEIB - Ibiza/Es Codola, Spain
Distance from station: OSO 165km
Actualización: 21/01/2018 19:30
Despejado
Despejado
 Viento del OSO
Viento: OSO 17 km/h
Temperatura: 18°C
Rocío: 7°C
Humedad: 49%
Barómetro: 1023 hPa
Resumen: Despejado
Visibility: greater than 10 km
2018/01/21 18:30 LEIB 211830Z 25009KT CAVOK 18/07 Q1023 NOSIG
LEBL - Barcelona Airpor, Spain
Distance from station: NNO 225km
Actualización: 21/01/2018 19:30
Few Clouds
Few Clouds
 Viento del O
Viento: O 15 km/h
Temperatura: 17°C
Rocío: 10°C
Humedad: 64%
Barómetro: 1020 hPa
Clouds: Few Clouds
Visibility: 10 km
Cloud details: Few Clouds 914 m
2018/01/21 18:30 LEBL 211830Z 26008KT 220V290 9999 FEW030 17/10 Q1020 NOSIG
 
LEVC - Valencia (civ/Mi, Spain
Distance from station: NO 188km
Actualización: 21/01/2018 19:30
Despejado
Despejado
 Viento del ONO
Viento: ONO 20 km/h
Temperatura: 21°C
Rocío: 6°C
Humedad: 38%
Barómetro: 1023 hPa
Resumen: Despejado
Visibility: greater than 10 km
2018/01/21 18:30 LEVC 211830Z 30011KT CAVOK 21/06 Q1023 NOSIG
LEGE - Gerona/Costa Bra, Spain
Distance from station: N 276km
Actualización: 21/01/2018 19:30
Few Clouds
Few Clouds
 Viento del varies
Viento: varies 2 km/h
Temperatura: 13°C
Rocío: 8°C
Humedad: 72%
Barómetro: 1020 hPa
Clouds: Few Clouds
Visibility: 10 km
Cloud details: Few Clouds 914 m
2018/01/21 18:30 LEGE 211830Z VRB01KT 9999 FEW030 13/08 Q1020
 
LEAL - Alicante/El Alte, Spain
Distance from station: OSO 344km
Actualización: 21/01/2018 19:30
Despejado
Despejado
 Viento del NO
Viento: NO 9 km/h
Temperatura: 19°C
Rocío: 7°C
Humedad: 46%
Barómetro: 1023 hPa
Resumen: Despejado
Visibility: greater than 10 km
2018/01/21 18:30 LEAL 211830Z 32005KT CAVOK 19/07 Q1023 NOSIG
LEAM - Almeria Airport, Spain
Distance from station: SSO 56km
Actualización: 21/01/2018 19:30
Despejado
Despejado
 Viento del ENE
Viento: ENE 6 km/h
Temperatura: 15°C
Rocío: 9°C
Humedad: 68%
Barómetro: 1025 hPa
Resumen: Despejado
Visibility: greater than 10 km
2018/01/21 18:30 LEAM 211830Z 07003KT 030V120 CAVOK 15/09 Q1025
 
LEZG - Zaragoza (mil/Ci, Spain
Distance from station: NO 431km
Actualización: 21/01/2018 19:30
Few Clouds
Few Clouds
 Viento del ONO
Viento: ONO 30 km/h
Temperatura: 15°C
Rocío: 10°C
Humedad: 72%
Barómetro: 1027 hPa
Clouds: Few Clouds
Visibility: 10 km
Cloud details: Few Clouds 1219 m
2018/01/21 18:30 LEZG 211830Z 30016KT 9999 FEW040 15/10 Q1027
LEMD - Madrid/Barajas, Spain
Distance from station: ONO 234km
Actualización: 21/01/2018 19:30
Despejado
Despejado
 Viento del ONO
Viento: ONO 9 km/h
Temperatura: 12°C
Rocío: 8°C
Humedad: 77%
Barómetro: 1028 hPa
Resumen: Despejado
Visibility: greater than 10 km
2018/01/21 18:30 LEMD 211830Z 30005KT CAVOK 12/08 Q1028 NOSIG
 
LEGR - Granada Airport, Spain
Distance from station: OSO 62km
Actualización: 21/01/2018 19:30
Despejado
Despejado
 Viento del N
Viento: N 7 km/h
Temperatura: 13°C
Rocío: 6°C
Humedad: 63%
Barómetro: 1028 hPa
Resumen: Despejado
Visibility: greater than 10 km
2018/01/21 18:30 LEGR 211830Z 36004KT CAVOK 13/06 Q1028
LEMG - Malaga (civ/Mil), Spain
Distance from station: OSO 227km
Actualización: 21/01/2018 19:30
Despejado
Despejado
 Viento del ONO
Viento: ONO 24 km/h
Temperatura: 17°C
Rocío: 8°C
Humedad: 56%
Barómetro: 1027 hPa
Resumen: Despejado
Visibility: greater than 10 km
2018/01/21 18:30 LEMG 211830Z 29013KT CAVOK 17/08 Q1027 NOSIG
 
LEZL - Sevilla (civ/Mil, Spain
Distance from station: S 318km
Actualización: 21/01/2018 19:30
Despejado
Despejado
 Viento del SSO
Viento: SSO 7 km/h
Temperatura: 15°C
Rocío: 11°C
Humedad: 77%
Barómetro: 1029 hPa
Resumen: Despejado
Visibility: greater than 10 km
2018/01/21 18:30 LEZL 211830Z 20004KT 170V230 CAVOK 15/11 Q1029 NOSIG
LEVT - Vitoria, Spain
Distance from station: NO 226km
Actualización: 21/01/2018 19:30
Few Clouds
Few Clouds
 Viento del E
Viento: E 6 km/h
Temperatura: 10°C
Rocío: 9°C
Humedad: 94%
Barómetro: 1029 hPa
Clouds: Few Clouds
Visibility: 10 km
Cloud details: Few Clouds 914 m
2018/01/21 18:30 LEVT 211830Z 08003KT 020V130 9999 FEW030 10/09 Q1029
 
LEBB - Bilbao/Sondica, Spain
Distance from station: NNO 235km
Actualización: 21/01/2018 19:30
Parcialmente nuboso
Parcialmente nuboso
 Viento del S
Viento: S 2 km/h
Temperatura: 13°C
Rocío: 11°C
Humedad: 88%
Barómetro: 1029 hPa
Clouds: Parcialmente nuboso
Visibility: 10 km
Cloud details: Few Clouds 762 m
Parcialmente nuboso 914 m
2018/01/21 18:30 LEBB 211830Z 18001KT 9999 FEW025 SCT030 13/11 Q1029 NOSIG
LESO - San Sebastian/Fu, Spain
Distance from station: N 231km
Actualización: 21/01/2018 19:30
Cubierto
Cubierto
 Viento del varies
Viento: varies 4 km/h
Temperatura: 14°C
Rocío: 11°C
Humedad: 82%
Barómetro: 1029 hPa
Clouds: Cubierto
Visibility: 10 km
Cloud details: Cubierto 610 m
2018/01/21 18:30 LESO 211830Z VRB02KT 9999 OVC020 14/11 Q1029
 
LEVD - Valladolid(Mil/C, Spain
Distance from station: ONO 239km
Actualización: 21/01/2018 19:30
Few Clouds
Few Clouds
 Viento del S
Viento: S 9 km/h
Temperatura: 7°C
Sensación frio: 6°C
Rocío: 6°C
Humedad: 93%
Barómetro: 1030 hPa
Clouds: Few Clouds
Visibility: 10 km
Cloud details: Few Clouds 488 m
2018/01/21 18:30 LEVD 211830Z 17005KT 140V200 9999 FEW016 07/06 Q1030
LESA - Salamanca (civ/M, Spain
Distance from station: ONO 349km
Actualización: 21/01/2018 19:30
Cubierto
Cubierto
 Viento del O
Viento: O 13 km/h
Temperatura: 8°C
Sensación frio: 6°C
Rocío: 6°C
Humedad: 87%
Barómetro: 1031 hPa
Clouds: Cubierto
Visibility: 10 km
Cloud details: Cubierto 396 m
2018/01/21 18:30 LESA 211830Z 28007KT 9999 OVC013 08/06 Q1031
 
LEXJ - Santander/Paraya, Spain
Distance from station: NNO 247km
Actualización: 21/01/2018 19:30
Few Clouds
Few Clouds
 Viento del SO
Viento: SO 6 km/h
Temperatura: 14°C
Rocío: 11°C
Humedad: 82%
Barómetro: 1029 hPa
Clouds: Few Clouds
Visibility: 10 km
Cloud details: Few Clouds 640 m
2018/01/21 18:30 LEXJ 211830Z 22003KT 190V250 9999 FEW021 14/11 Q1029
LEAS - Asturias/Aviles, Spain
Distance from station: NO 214km
Actualización: 21/01/2018 19:30
Despejado
Despejado
 Viento del NNO
Viento: NNO 9 km/h
Temperatura: 13°C
Rocío: 11°C
Humedad: 88%
Barómetro: 1028 hPa
Resumen: Despejado
Visibility: greater than 10 km
2018/01/21 18:30 LEAS 211830Z 33005KT 290V360 CAVOK 13/11 Q1028 NOSIG
 
LECO - La Coruna/Alvedr, Spain
Distance from station: ONO 222km
Actualización: 21/01/2018 19:30
Muy nuboso
Muy nuboso
 Viento del OSO
Viento: OSO 9 km/h
Temperatura: 14°C
Rocío: 11°C
Humedad: 82%
Barómetro: 1030 hPa
Clouds: Muy nuboso
Visibility: 10 km
Cloud details: Muy nuboso 914 m
2018/01/21 18:30 LECO 211830Z 24005KT 200V270 9999 BKN030 14/11 Q1030 NOSIG
LEVX - Vigo/Peinador, Spain
Distance from station: O 214km
Actualización: 21/01/2018 19:30
Patches of fog, Muy nuboso
Patches of fog, Muy nuboso
 Viento del OSO
Viento: OSO 6 km/h
Temperatura: 12°C
Rocío: 12°C
Humedad: 100%
Barómetro: 1031 hPa
Resumen: Patches of Fog
Clouds: Muy nuboso
Visibility: 2 km
Cloud details: Parcialmente nuboso 61 m
Muy nuboso 274 m
2018/01/21 18:30 LEVX 211830Z 24003KT 210V280 1500 BCFG SCT002 BKN009 12/12 Q1031 TEMPO 0600 BCFG BKN002